createdAt,value
2019-06-15T00:02:18.695Z,25.71
2019-06-15T00:04:46.053Z,25.53
2019-06-15T00:07:13.387Z,25.81
2019-06-15T00:09:40.738Z,26.20
2019-06-15T00:12:08.037Z,26.11
2019-06-15T00:14:35.398Z,26.11
2019-06-15T00:17:02.787Z,26.69
2019-06-15T00:19:30.112Z,26.60
2019-06-15T00:21:57.445Z,26.60
2019-06-15T00:24:35.031Z,26.87
2019-06-15T00:26:53.989Z,26.49
2019-06-15T00:29:22.525Z,26.44
2019-06-15T00:31:49.855Z,26.57
2019-06-15T00:34:17.176Z,26.22
2019-06-15T00:36:44.495Z,26.22
2019-06-15T00:39:11.835Z,26.23
2019-06-15T00:41:39.208Z,26.18
2019-06-15T00:44:06.637Z,26.09
2019-06-15T00:46:33.999Z,25.89
2019-06-15T00:49:01.328Z,26.03
2019-06-15T00:51:28.735Z,25.84
2019-06-15T00:53:56.049Z,25.85
2019-06-15T00:56:23.381Z,25.77
2019-06-15T00:58:50.696Z,25.83
2019-06-15T01:01:17.994Z,25.83
2019-06-15T01:03:45.337Z,25.67
2019-06-15T01:06:12.657Z,25.59
2019-06-15T01:08:39.997Z,25.55
2019-06-15T01:11:07.251Z,25.61
2019-06-15T01:13:34.548Z,25.44
2019-06-15T01:16:01.887Z,25.28
2019-06-15T01:18:29.179Z,25.11
2019-06-15T01:20:58.275Z,25.55
2019-06-15T01:23:25.679Z,25.54
2019-06-15T01:25:53.039Z,25.57
2019-06-15T01:28:20.379Z,25.68
2019-06-15T01:30:47.804Z,25.35
2019-06-15T01:33:15.065Z,24.93
2019-06-15T01:35:42.335Z,24.67
2019-06-15T01:38:09.636Z,24.30
2019-06-15T01:40:36.977Z,24.08
2019-06-15T01:43:04.324Z,24.17
2019-06-15T01:45:31.647Z,23.87
2019-06-15T01:47:58.978Z,23.88
2019-06-15T01:50:26.309Z,23.87
2019-06-15T01:52:53.629Z,23.64
2019-06-15T01:55:21.460Z,23.56
2019-06-15T01:57:48.835Z,22.99
2019-06-15T02:00:20.167Z,22.87
2019-06-15T02:02:47.423Z,22.43
2019-06-15T02:05:15.287Z,22.29
2019-06-15T02:07:42.560Z,22.13
2019-06-15T02:10:12.307Z,22.81
2019-06-15T02:12:39.667Z,22.48
2019-06-15T02:15:06.930Z,22.62
2019-06-15T02:17:34.228Z,22.65
2019-06-15T02:20:01.617Z,22.73
2019-06-15T02:22:28.909Z,22.71
2019-06-15T02:24:56.231Z,22.61
2019-06-15T02:27:23.566Z,22.57
2019-06-15T02:29:53.037Z,22.74
2019-06-15T02:32:20.296Z,22.37
2019-06-15T02:34:47.568Z,22.36
2019-06-15T02:37:14.878Z,22.52
2019-06-15T02:39:42.148Z,23.13
2019-06-15T02:42:09.413Z,22.80
2019-06-15T02:44:36.744Z,22.86
2019-06-15T02:47:04.089Z,22.58
2019-06-15T02:49:31.416Z,22.98
2019-06-15T02:51:58.845Z,22.75
2019-06-15T02:54:26.141Z,23.87
2019-06-15T02:56:53.447Z,23.04
2019-06-15T02:59:20.738Z,23.92
2019-06-15T03:01:48.143Z,23.63
2019-06-15T03:04:15.431Z,22.90
2019-06-15T03:06:42.910Z,22.57
2019-06-15T03:09:10.208Z,22.82
2019-06-15T03:11:37.509Z,23.11
2019-06-15T03:14:05.035Z,22.81
2019-06-15T03:16:32.329Z,22.97
2019-06-15T03:18:59.678Z,23.06
2019-06-15T03:21:26.953Z,22.94
2019-06-15T03:23:54.210Z,22.64
2019-06-15T03:26:21.565Z,22.41
2019-06-15T03:28:48.828Z,22.51
2019-06-15T03:31:16.129Z,22.44
2019-06-15T03:33:43.453Z,22.86
2019-06-15T03:36:10.774Z,22.45
2019-06-15T03:38:38.089Z,22.11
2019-06-15T03:41:05.367Z,22.15
2019-06-15T03:43:32.670Z,22.23
2019-06-15T03:45:59.977Z,22.21
2019-06-15T03:48:27.310Z,22.18
2019-06-15T03:50:54.612Z,21.97
2019-06-15T03:53:21.867Z,22.05
2019-06-15T03:55:49.190Z,21.83
2019-06-15T03:58:16.455Z,21.95
2019-06-15T04:01:12.069Z,21.65
2019-06-15T04:03:39.336Z,21.43
2019-06-15T04:06:06.651Z,21.19
2019-06-15T04:08:33.951Z,21.00
2019-06-15T04:11:01.270Z,21.29
2019-06-15T04:13:28.554Z,21.46
2019-06-15T04:15:55.879Z,21.26
2019-06-15T04:18:23.212Z,20.62
2019-06-15T04:20:50.511Z,21.09
2019-06-15T04:23:17.831Z,21.15
2019-06-15T04:25:45.127Z,21.04
2019-06-15T04:28:12.473Z,20.72
2019-06-15T04:30:39.747Z,20.98
2019-06-15T04:33:07.075Z,20.34
2019-06-15T04:35:34.382Z,20.90
2019-06-15T04:38:01.676Z,20.90
2019-06-15T04:40:28.977Z,20.67
2019-06-15T04:42:56.327Z,20.84
2019-06-15T04:45:23.608Z,20.87
2019-06-15T04:47:50.968Z,21.12
2019-06-15T04:50:18.363Z,20.42
2019-06-15T04:52:45.696Z,20.18
2019-06-15T04:55:13.066Z,20.48
2019-06-15T04:57:40.390Z,20.31
2019-06-15T05:00:08.968Z,20.68
2019-06-15T05:02:36.310Z,20.83
2019-06-15T05:05:04.498Z,20.84
2019-06-15T05:07:31.812Z,21.24
2019-06-15T05:09:59.146Z,20.97
2019-06-15T05:12:26.461Z,20.30
2019-06-15T05:14:53.730Z,20.78
2019-06-15T05:17:21.037Z,21.10
2019-06-15T05:19:48.288Z,21.54
2019-06-15T05:22:15.566Z,21.50
2019-06-15T05:24:42.842Z,21.33
2019-06-15T05:27:10.107Z,21.34
2019-06-15T05:29:37.506Z,21.49
2019-06-15T05:32:04.858Z,21.41
2019-06-15T05:34:32.163Z,21.52
2019-06-15T05:36:59.621Z,21.63
2019-06-15T05:39:26.866Z,21.64
2019-06-15T05:41:54.206Z,21.57
2019-06-15T05:44:21.541Z,21.73
2019-06-15T05:46:48.852Z,21.91
2019-06-15T05:49:16.788Z,22.06
2019-06-15T05:51:44.108Z,22.09
2019-06-15T05:54:11.465Z,21.59
2019-06-15T05:56:38.754Z,21.93
2019-06-15T05:59:06.060Z,21.93
2019-06-15T06:01:33.374Z,22.00
2019-06-15T06:04:00.658Z,21.98
2019-06-15T06:06:27.949Z,21.97
2019-06-15T06:08:55.286Z,22.09
2019-06-15T06:11:22.606Z,22.08
2019-06-15T06:13:49.931Z,21.96
2019-06-15T06:16:17.268Z,22.23
2019-06-15T06:18:44.591Z,22.11
2019-06-15T06:21:11.959Z,22.20
2019-06-15T06:23:39.257Z,22.23
2019-06-15T06:26:06.551Z,22.47
2019-06-15T06:28:33.875Z,22.36
2019-06-15T06:31:01.151Z,22.62
2019-06-15T06:33:28.528Z,22.96
2019-06-15T06:35:55.856Z,23.08
2019-06-15T06:38:23.166Z,23.27
2019-06-15T06:40:50.546Z,23.11
2019-06-15T06:43:17.868Z,23.32
2019-06-15T06:45:45.200Z,23.51
2019-06-15T06:48:12.494Z,23.65
2019-06-15T06:50:41.324Z,23.84
2019-06-15T06:53:08.809Z,23.84
2019-06-15T06:55:36.057Z,23.91
2019-06-15T06:58:03.353Z,23.71
2019-06-15T07:00:30.657Z,23.73
2019-06-15T07:02:57.951Z,23.49
2019-06-15T07:05:25.249Z,23.58
2019-06-15T07:07:52.591Z,23.69
2019-06-15T07:10:19.898Z,23.87
2019-06-15T07:12:47.228Z,24.08
2019-06-15T07:15:14.831Z,24.13
2019-06-15T07:17:42.097Z,24.20
2019-06-15T07:20:09.698Z,24.29
2019-06-15T07:22:37.056Z,24.24
2019-06-15T07:25:04.763Z,24.61
2019-06-15T07:27:32.069Z,24.46
2019-06-15T07:29:59.376Z,24.61
2019-06-15T07:32:26.730Z,24.67
2019-06-15T07:34:53.994Z,24.64
2019-06-15T07:37:21.252Z,24.70
2019-06-15T07:39:48.567Z,24.58
2019-06-15T07:42:15.841Z,24.78
2019-06-15T07:44:43.158Z,24.78
2019-06-15T07:47:10.448Z,24.68
2019-06-15T07:49:37.746Z,24.61
2019-06-15T07:52:05.057Z,24.48
2019-06-15T07:54:32.358Z,25.02
2019-06-15T07:56:59.661Z,24.95
2019-06-15T07:59:26.968Z,25.21
2019-06-15T08:01:54.298Z,25.61
2019-06-15T08:04:21.628Z,25.63
2019-06-15T08:06:48.884Z,25.83
2019-06-15T08:09:16.179Z,25.84
2019-06-15T08:11:45.817Z,25.96
2019-06-15T08:14:12.747Z,25.96
2019-06-15T08:16:40.029Z,26.24
2019-06-15T08:19:07.317Z,26.45
2019-06-15T08:21:34.739Z,26.87
2019-06-15T08:24:04.679Z,26.87
2019-06-15T08:26:31.261Z,26.74
2019-06-15T08:28:58.564Z,26.64
2019-06-15T08:31:25.908Z,26.62
2019-06-15T08:33:53.248Z,26.50
2019-06-15T08:36:20.649Z,26.20
2019-06-15T08:38:47.989Z,26.57
2019-06-15T08:41:15.303Z,26.58
2019-06-15T08:43:42.599Z,26.76
2019-06-15T08:46:09.898Z,26.86
2019-06-15T08:48:37.222Z,27.05
2019-06-15T08:51:04.553Z,27.13
2019-06-15T08:53:31.847Z,26.97
2019-06-15T08:55:59.207Z,27.08
2019-06-15T08:58:26.533Z,26.77
2019-06-15T09:00:53.851Z,26.57
2019-06-15T09:03:21.127Z,26.60
2019-06-15T09:05:48.427Z,26.60
2019-06-15T09:08:15.788Z,26.69
2019-06-15T09:10:43.114Z,27.01
2019-06-15T09:13:10.471Z,27.67
2019-06-15T09:15:51.232Z,27.88
2019-06-15T09:18:18.647Z,27.09
2019-06-15T09:20:46.314Z,26.85
2019-06-15T09:23:13.663Z,26.65
2019-06-15T09:25:40.977Z,26.75
2019-06-15T09:28:08.286Z,27.29
2019-06-15T09:30:35.631Z,27.44
2019-06-15T09:33:02.929Z,26.98
2019-06-15T09:35:30.249Z,26.82
2019-06-15T09:37:57.571Z,27.19
2019-06-15T09:40:24.918Z,27.20
2019-06-15T09:42:52.226Z,26.95
2019-06-15T09:45:19.559Z,26.64
2019-06-15T09:47:46.852Z,26.89
2019-06-15T09:50:14.329Z,27.29
2019-06-15T09:52:41.895Z,27.60
2019-06-15T09:55:09.947Z,27.69
2019-06-15T09:57:37.254Z,27.27
2019-06-15T10:00:05.284Z,26.76
2019-06-15T10:02:32.601Z,27.09
2019-06-15T10:04:59.866Z,27.39
2019-06-15T10:07:27.221Z,27.20
2019-06-15T10:09:54.487Z,26.77
2019-06-15T10:12:21.802Z,26.74
2019-06-15T10:14:49.218Z,26.54
2019-06-15T10:17:16.550Z,26.82
2019-06-15T10:19:43.878Z,27.54
2019-06-15T10:22:11.169Z,27.88
2019-06-15T10:24:38.481Z,27.81
2019-06-15T10:27:05.853Z,28.07
2019-06-15T10:29:41.871Z,27.78
2019-06-15T10:32:02.390Z,28.22
2019-06-15T10:34:29.768Z,27.67
2019-06-15T10:36:57.072Z,28.12
2019-06-15T10:39:24.415Z,27.68
2019-06-15T10:41:51.763Z,27.64
2019-06-15T10:44:19.061Z,27.53
2019-06-15T10:46:46.463Z,27.88
2019-06-15T10:49:13.756Z,27.53
2019-06-15T10:51:41.073Z,27.61
2019-06-15T10:54:08.431Z,27.84
2019-06-15T10:56:35.828Z,27.10
2019-06-15T10:59:03.149Z,27.36
2019-06-15T11:01:30.472Z,26.83
2019-06-15T11:03:57.839Z,27.37
2019-06-15T11:06:25.110Z,27.75
2019-06-15T11:08:52.489Z,27.54
2019-06-15T11:11:21.890Z,27.60
2019-06-15T11:13:50.321Z,28.01
2019-06-15T11:16:17.880Z,27.58
2019-06-15T11:18:45.160Z,27.62
2019-06-15T11:21:12.496Z,27.74
2019-06-15T11:23:39.897Z,28.14
2019-06-15T11:26:07.278Z,27.12
2019-06-15T11:28:34.631Z,26.68
2019-06-15T11:31:02.002Z,26.58
2019-06-15T11:33:29.392Z,26.44
2019-06-15T11:35:56.855Z,26.18
2019-06-15T11:38:24.298Z,26.04
2019-06-15T11:40:51.612Z,26.31
2019-06-15T11:43:18.993Z,25.94
2019-06-15T11:45:46.371Z,25.97
2019-06-15T11:48:13.750Z,26.19
2019-06-15T11:50:41.163Z,26.09
2019-06-15T11:53:08.541Z,26.68
2019-06-15T11:55:39.612Z,26.57
2019-06-15T11:58:05.202Z,26.32
2019-06-15T12:00:36.276Z,26.38
2019-06-15T12:03:03.668Z,25.88
2019-06-15T12:05:31.080Z,25.78
2019-06-15T12:07:58.450Z,26.00
2019-06-15T12:10:25.794Z,26.24
2019-06-15T12:12:53.234Z,25.69
2019-06-15T12:15:20.718Z,25.89
2019-06-15T12:17:48.113Z,25.89
2019-06-15T12:20:15.572Z,26.09
2019-06-15T12:22:42.958Z,26.23
2019-06-15T12:25:10.427Z,26.07
2019-06-15T12:27:37.923Z,26.20
2019-06-15T12:30:07.498Z,25.86
2019-06-15T12:32:34.841Z,25.31
2019-06-15T12:35:02.235Z,25.39
2019-06-15T12:37:29.610Z,26.03
2019-06-15T12:39:57.018Z,25.95
2019-06-15T12:42:24.395Z,25.74
2019-06-15T12:44:51.778Z,26.18
2019-06-15T12:47:19.090Z,27.27
2019-06-15T12:49:46.435Z,27.27
2019-06-15T12:52:13.826Z,27.17
2019-06-15T12:54:41.169Z,26.63
2019-06-15T12:57:08.538Z,26.64
2019-06-15T12:59:35.867Z,26.43
2019-06-15T13:02:03.281Z,26.84
2019-06-15T13:04:30.827Z,26.73
2019-06-15T13:06:58.196Z,26.84
2019-06-15T13:09:25.569Z,26.64
2019-06-15T13:11:52.849Z,26.31
2019-06-15T13:14:20.188Z,26.30
2019-06-15T13:16:48.181Z,26.14
2019-06-15T13:19:15.679Z,26.43
2019-06-15T13:21:43.033Z,26.39
2019-06-15T13:24:10.377Z,26.09
2019-06-15T13:26:38.187Z,26.02
2019-06-15T13:29:05.548Z,26.35
2019-06-15T13:31:32.894Z,26.34
2019-06-15T13:34:00.267Z,26.34
2019-06-15T13:36:27.683Z,26.30
2019-06-15T13:38:55.055Z,25.73
2019-06-15T13:41:24.485Z,26.36
2019-06-15T13:43:51.661Z,26.36
2019-06-15T13:46:19.059Z,26.77
2019-06-15T13:48:46.445Z,26.77
2019-06-15T13:51:13.749Z,26.50
2019-06-15T13:53:41.159Z,26.68
2019-06-15T13:56:08.537Z,27.10
2019-06-15T13:58:35.897Z,26.99
2019-06-15T14:01:03.271Z,27.02
2019-06-15T14:03:30.571Z,26.72
2019-06-15T14:05:57.930Z,26.91
2019-06-15T14:08:25.275Z,27.22
2019-06-15T14:10:52.613Z,26.41
2019-06-15T14:13:19.950Z,27.07
2019-06-15T14:15:47.258Z,27.36
